Time;durP1;ratioP1;P1;durP2;ratioP2;P2;SDS_P1;SDS_P2;PMS_P1;PMS_P2;Temp;Humidity;BMP_temperature;BMP_pressure;BME280_temperature;BME280_humidity;BME280_pressure;Samples;Min_cycle;Max_cycle;Signal;HPM_P1;HPM_P2
2022/04/26 03:37:45;;;;;;;11.50;4.85;;;4.60;99.90;;;;;;5081754;28;20086;-80
2022/04/26 03:40:11;;;;;;;11.88;4.55;;;4.40;99.90;;;;;;5073714;28;20028;-79
2022/04/26 03:42:36;;;;;;;10.43;4.05;;;4.30;99.90;;;;;;5066880;28;20078;-79
2022/04/26 03:45:02;;;;;;;10.48;4.82;;;4.40;99.90;;;;;;5076785;28;20025;-79
2022/04/26 03:47:28;;;;;;;12.15;4.47;;;4.40;99.90;;;;;;5072529;28;20025;-80
2022/04/26 03:49:53;;;;;;;9.35;3.92;;;4.40;99.90;;;;;;5060117;28;20056;-79
2022/04/26 03:52:20;;;;;;;9.80;3.60;;;4.50;99.90;;;;;;5059444;28;20107;-79
2022/04/26 03:54:45;;;;;;;8.80;4.25;;;4.50;99.90;;;;;;5060154;28;20425;-79
2022/04/26 03:57:11;;;;;;;6.80;4.03;;;4.60;99.90;;;;;;5060126;28;20060;-79
2022/04/26 03:59:36;;;;;;;7.45;4.07;;;4.40;99.90;;;;;;5058654;28;20811;-79
2022/04/26 04:02:02;;;;;;;10.25;4.38;;;4.40;99.90;;;;;;5070038;28;20034;-79
2022/04/26 04:04:28;;;;;;;10.30;4.28;;;4.30;99.90;;;;;;5070879;28;20029;-79
2022/04/26 04:06:53;;;;;;;4.00;2.30;;;4.30;99.90;;;;;;5059385;28;20117;-79
2022/04/26 04:09:19;;;;;;;8.43;3.72;;;4.30;99.90;;;;;;5058761;28;20543;-79
2022/04/26 04:11:44;;;;;;;6.07;3.13;;;4.30;99.90;;;;;;5059168;28;20029;-79
2022/04/26 04:14:10;;;;;;;9.90;4.00;;;4.40;99.90;;;;;;5057999;28;20060;-79
2022/04/26 04:16:35;;;;;;;13.23;4.22;;;4.30;99.90;;;;;;5058225;28;20036;-79
2022/04/26 04:19:20;;;;;;;8.57;3.78;;;4.30;99.90;;;;;;5059854;28;20021;-79
2022/04/26 04:21:47;;;;;;;11.65;3.85;;;4.30;99.90;;;;;;5078494;28;20082;-79
2022/04/26 04:24:13;;;;;;;17.42;4.57;;;4.40;99.90;;;;;;5070750;28;20029;-79
2022/04/26 04:26:39;;;;;;;8.45;3.50;;;4.30;99.90;;;;;;5061235;28;20106;-79
2022/04/26 04:29:05;;;;;;;8.27;4.10;;;4.30;99.90;;;;;;5078506;28;20413;-79
2022/04/26 04:31:32;;;;;;;4.88;2.67;;;4.40;99.90;;;;;;5077760;28;20020;-79
2022/04/26 04:33:57;;;;;;;9.43;4.65;;;4.40;99.90;;;;;;5075934;28;20032;-79
2022/04/26 04:36:23;;;;;;;8.07;4.32;;;4.40;99.90;;;;;;5063163;28;20074;-80
2022/04/26 04:38:48;;;;;;;7.72;4.50;;;4.40;99.90;;;;;;5068950;28;20067;-80
2022/04/26 04:41:14;;;;;;;6.97;3.88;;;4.60;99.90;;;;;;5087898;28;20073;-80
2022/04/26 04:43:40;;;;;;;9.52;4.20;;;4.60;99.90;;;;;;5070508;28;20021;-80
2022/04/26 04:46:06;;;;;;;10.05;5.00;;;4.60;99.90;;;;;;5082543;28;20075;-80
2022/04/26 04:48:31;;;;;;;7.55;3.40;;;4.70;99.90;;;;;;5062375;28;20040;-80
2022/04/26 04:50:57;;;;;;;6.95;4.45;;;4.80;99.90;;;;;;5079942;28;20045;-80
2022/04/26 04:53:22;;;;;;;11.60;4.32;;;4.90;99.90;;;;;;5076670;28;20036;-80
2022/04/26 04:55:48;;;;;;;9.65;4.72;;;4.90;99.90;;;;;;5084260;28;20102;-79
2022/04/26 04:58:13;;;;;;;10.95;5.22;;;5.00;99.90;;;;;;5080781;28;20028;-80
2022/04/26 05:00:39;;;;;;;8.98;4.22;;;5.00;99.90;;;;;;5079735;28;20464;-79
2022/04/26 05:03:04;;;;;;;5.53;2.55;;;5.20;99.90;;;;;;5080652;28;20388;-81
2022/04/26 05:05:30;;;;;;;7.18;4.00;;;5.30;99.90;;;;;;5080540;28;20021;-79
2022/04/26 05:07:58;;;;;;;6.28;3.97;;;5.40;99.90;;;;;;5078446;28;20017;-79
2022/04/26 05:10:26;;;;;;;10.95;4.03;;;5.50;99.90;;;;;;5056273;28;20112;-79
2022/04/26 05:12:52;;;;;;;8.93;3.97;;;5.60;99.90;;;;;;5070750;28;20033;-79
2022/04/26 05:15:17;;;;;;;9.55;4.97;;;5.70;99.90;;;;;;5073249;28;20059;-79
2022/04/26 05:17:43;;;;;;;7.72;4.35;;;5.80;99.90;;;;;;5077970;28;20020;-80
2022/04/26 05:20:09;;;;;;;8.70;4.80;;;5.90;99.90;;;;;;5084531;28;20025;-80
2022/04/26 05:24:53;;;;;;;6.18;3.97;;;6.00;99.90;;;;;;5078794;28;20166;-79
2022/04/26 05:25:21;;;;;;;7.97;4.45;;;6.10;99.90;;;;;;5067767;28;20032;-80
2022/04/26 05:27:46;;;;;;;9.65;3.95;;;7.50;99.90;;;;;;5079785;28;20021;-80
2022/04/26 05:30:12;;;;;;;9.98;4.53;;;10.50;1.00;;;;;;5070199;28;20028;-80
2022/04/26 05:32:38;;;;;;;7.15;4.85;;;11.90;1.00;;;;;;5071485;28;20025;-79
2022/04/26 05:35:04;;;;;;;12.20;4.47;;;13.00;99.90;;;;;;5069814;28;20036;-79
2022/04/26 05:37:33;;;;;;;6.40;4.18;;;13.60;99.90;;;;;;5073980;28;20017;-81
2022/04/26 05:40:02;;;;;;;9.30;4.50;;;14.50;99.90;;;;;;5077226;28;20369;-81
2022/04/26 05:42:31;;;;;;;6.15;2.40;;;15.00;99.90;;;;;;5076611;28;20027;-81
2022/04/26 05:44:57;;;;;;;6.28;4.07;;;14.80;99.90;;;;;;5062756;28;20025;-81
2022/04/26 05:47:23;;;;;;;3.75;3.08;;;15.30;99.90;;;;;;5055077;28;20029;-82
2022/04/26 05:49:48;;;;;;;9.05;3.95;;;15.60;99.90;;;;;;5057399;28;20036;-82
2022/04/26 05:52:14;;;;;;;5.93;3.45;;;16.30;99.90;;;;;;5075925;28;20040;-81
2022/04/26 05:54:40;;;;;;;8.88;3.30;;;16.70;99.90;;;;;;5059304;28;20443;-82
2022/04/26 05:57:05;;;;;;;6.45;3.33;;;17.20;99.90;;;;;;5064892;28;20024;-82
2022/04/26 05:59:31;;;;;;;10.15;4.03;;;17.40;99.90;;;;;;5073964;28;20092;-82
2022/04/26 06:01:57;;;;;;;5.88;3.25;;;17.00;99.90;;;;;;5069247;28;20032;-82
2022/04/26 06:04:24;;;;;;;5.60;2.78;;;16.80;99.90;;;;;;5073236;28;20031;-82
2022/04/26 06:06:50;;;;;;;5.35;3.03;;;13.20;99.90;;;;;;5073070;28;20535;-82
2022/04/26 06:09:16;;;;;;;6.18;3.45;;;11.60;99.90;;;;;;5066255;28;20101;-82
2022/04/26 06:11:42;;;;;;;4.60;2.40;;;11.90;99.90;;;;;;5054595;28;20044;-82
2022/04/26 06:14:08;;;;;;;4.57;2.28;;;11.30;99.90;;;;;;5053302;28;20048;-82
2022/04/26 06:16:33;;;;;;;8.65;2.83;;;10.90;99.90;;;;;;5055188;28;20025;-81
2022/04/26 06:18:59;;;;;;;5.30;3.63;;;10.60;1.00;;;;;;5087890;28;20024;-82
2022/04/26 06:21:24;;;;;;;5.88;3.65;;;10.90;1.00;;;;;;5078281;28;20534;-81
2022/04/26 06:23:50;;;;;;;4.20;2.65;;;11.40;99.90;;;;;;5072400;28;20716;-81
2022/04/26 06:26:16;;;;;;;4.90;2.85;;;11.40;99.90;;;;;;5073967;28;20387;-82
2022/04/26 06:28:42;;;;;;;3.38;2.33;;;11.50;99.90;;;;;;5064013;28;20040;-81
2022/04/26 06:31:07;;;;;;;5.65;1.77;;;12.10;99.90;;;;;;5069810;28;20033;-81
2022/04/26 06:33:34;;;;;;;8.27;2.90;;;10.50;99.90;;;;;;5071232;28;20024;-82
2022/04/26 06:36:00;;;;;;;3.53;2.30;;;11.10;99.90;;;;;;5069784;28;20025;-81
2022/04/26 06:38:26;;;;;;;4.70;2.35;;;11.50;99.90;;;;;;5062424;28;20032;-79
2022/04/26 06:40:52;;;;;;;2.42;2.05;;;11.40;99.90;;;;;;5073959;28;20021;-80
2022/04/26 06:43:18;;;;;;;4.25;2.47;;;11.20;99.90;;;;;;5073701;28;20035;-81
2022/04/26 06:45:46;;;;;;;5.95;1.92;;;13.90;99.90;;;;;;5064081;28;20503;-80
2022/04/26 06:48:13;;;;;;;6.38;2.40;;;16.40;99.90;;;;;;5067529;28;20020;-80
2022/04/26 06:50:40;;;;;;;3.17;1.88;;;18.60;99.90;;;;;;5072407;28;20128;-80
2022/04/26 06:53:06;;;;;;;2.58;2.08;;;19.60;99.90;;;;;;5071970;28;20475;-80
2022/04/26 06:55:32;;;;;;;9.02;2.08;;;19.00;99.90;;;;;;5073863;28;20029;-80
2022/04/26 06:58:01;;;;;;;6.55;2.78;;;17.80;99.90;;;;;;5073317;28;20094;-80
2022/04/26 07:00:27;;;;;;;5.15;2.40;;;15.20;99.90;;;;;;5070360;28;20021;-79
2022/04/26 07:02:53;;;;;;;4.90;2.20;;;13.20;99.90;;;;;;5072198;28;20036;-79
2022/04/26 07:05:20;;;;;;;2.90;2.10;;;12.30;99.90;;;;;;5070129;28;20052;-80
2022/04/26 07:07:46;;;;;;;7.55;2.50;;;11.40;99.90;;;;;;5070196;28;20049;-79
2022/04/26 07:10:12;;;;;;;5.47;2.35;;;11.20;99.90;;;;;;5064902;28;20120;-81
2022/04/26 07:12:37;;;;;;;3.25;2.40;;;14.90;99.90;;;;;;5068544;28;20100;-81
2022/04/26 07:15:04;;;;;;;4.78;2.28;;;15.30;99.90;;;;;;5071335;28;20136;-80
2022/04/26 07:17:30;;;;;;;3.80;1.35;;;15.20;99.90;;;;;;5073229;28;20062;-80
2022/04/26 07:20:14;;;;;;;4.38;1.15;;;13.20;99.90;;;;;;5073703;28;20055;-80
2022/04/26 07:22:40;;;;;;;3.13;1.38;;;13.40;99.90;;;;;;5074259;28;20024;-80
2022/04/26 07:25:34;;;;;;;5.85;2.40;;;12.80;99.90;;;;;;5076199;28;20032;-80
2022/04/26 07:28:00;;;;;;;6.28;2.33;;;12.10;99.90;;;;;;5071882;28;20031;-80
2022/04/26 07:30:34;;;;;;;4.43;2.28;;;11.80;99.90;;;;;;5076574;28;20024;-80
2022/04/26 07:35:56;;;;;;;3.65;2.00;;;19.70;99.90;;;;;;5077336;28;20031;-80
2022/04/26 07:38:41;;;;;;;4.88;2.90;;;19.30;99.90;;;;;;5077409;28;20392;-79
2022/04/26 07:41:09;;;;;;;5.45;2.10;;;22.10;99.90;;;;;;5078644;28;20094;-79
2022/04/26 07:43:55;;;;;;;3.03;1.73;;;24.10;99.90;;;;;;5077911;28;20020;-80
2022/04/26 07:46:21;;;;;;;3.20;2.20;;;16.90;99.90;;;;;;5077430;28;20028;-80
2022/04/26 07:48:46;;;;;;;2.40;1.70;;;19.40;99.90;;;;;;5077682;28;20024;-80
2022/04/26 07:51:12;;;;;;;2.55;1.70;;;18.80;99.90;;;;;;5077594;28;20047;-80
2022/04/26 07:53:38;;;;;;;2.85;2.17;;;18.40;99.90;;;;;;5076984;28;20506;-80
2022/04/26 07:56:43;;;;;;;5.07;1.90;;;16.30;99.90;;;;;;5076663;28;20638;-79
2022/04/26 07:59:08;;;;;;;2.55;2.03;;;15.50;99.90;;;;;;5073311;28;20428;-79
2022/04/26 08:01:35;;;;;;;2.63;2.03;;;14.20;99.90;;;;;;5076513;28;20063;-80
2022/04/26 08:04:01;;;;;;;3.92;2.45;;;19.80;99.90;;;;;;5069901;28;20048;-79
2022/04/26 08:06:27;;;;;;;3.45;1.90;;;20.00;99.90;;;;;;5073986;28;20079;-80
2022/04/26 08:08:54;;;;;;;7.05;2.50;;;22.10;99.90;;;;;;5069055;28;20095;-81
2022/04/26 08:11:28;;;;;;;2.33;1.23;;;25.00;99.90;;;;;;5076685;28;20082;-81
2022/04/26 08:13:54;;;;;;;2.40;1.70;;;23.70;99.90;;;;;;5076765;28;20053;-81
2022/04/26 08:16:20;;;;;;;3.00;1.58;;;22.90;99.90;;;;;;5078405;28;20051;-82
2022/04/26 08:18:45;;;;;;;4.47;1.80;;;22.30;99.90;;;;;;5094836;28;20021;-81
2022/04/26 08:21:14;;;;;;;2.50;1.60;;;22.50;99.90;;;;;;5099481;28;20027;-82
2022/04/26 08:29:09;;;;;;;3.28;2.10;;;17.70;99.90;;;;;;5094848;28;20027;-83
2022/04/26 08:31:37;;;;;;;1.92;1.75;;;20.50;99.90;;;;;;5092092;28;20020;-82
2022/04/26 08:34:03;;;;;;;1.67;1.42;;;21.70;99.90;;;;;;5081384;28;20458;-80
2022/04/26 08:36:29;;;;;;;2.60;1.98;;;19.70;99.90;;;;;;5092047;28;20028;-80
2022/04/26 08:38:54;;;;;;;1.73;1.48;;;21.70;99.90;;;;;;5091021;28;20029;-81
2022/04/26 08:41:20;;;;;;;2.33;1.40;;;23.00;99.90;;;;;;5080441;28;20065;-80
2022/04/26 08:43:45;;;;;;;2.80;1.80;;;23.70;99.90;;;;;;5085752;28;20041;-81
2022/04/26 08:46:11;;;;;;;5.95;1.70;;;23.20;99.90;;;;;;5088012;28;20024;-81
2022/04/26 08:51:21;;;;;;;4.28;2.17;;;23.60;99.90;;;;;;5087168;28;20034;-81
2022/04/26 08:53:48;;;;;;;4.88;1.67;;;22.90;99.90;;;;;;5095624;28;20032;-81
2022/04/26 08:56:13;;;;;;;2.50;1.50;;;23.50;99.90;;;;;;5084693;28;20047;-81
2022/04/26 08:58:40;;;;;;;3.03;1.83;;;22.70;99.90;;;;;;5086269;28;20052;-80
2022/04/26 09:01:23;;;;;;;5.45;1.80;;;22.30;99.90;;;;;;5089350;28;20017;-81
2022/04/26 09:03:56;;;;;;;1.70;1.52;;;25.00;99.90;;;;;;5086083;28;20029;-81
2022/04/26 09:06:23;;;;;;;2.58;2.20;;;25.30;99.90;;;;;;5089049;28;20043;-81
2022/04/26 09:08:49;;;;;;;3.75;1.20;;;24.00;99.90;;;;;;5093459;28;20024;-80
2022/04/26 09:11:27;;;;;;;4.13;2.03;;;20.40;99.90;;;;;;5075140;28;20047;-80
2022/04/26 09:13:54;;;;;;;9.25;2.63;;;23.90;99.90;;;;;;5075157;28;20051;-79
2022/04/26 09:16:21;;;;;;;8.55;1.67;;;24.80;99.90;;;;;;5087206;28;20084;-79
2022/04/26 09:18:52;;;;;;;2.30;2.10;;;22.30;99.90;;;;;;5086062;28;20019;-80
2022/04/26 09:21:18;;;;;;;3.10;1.65;;;22.70;99.90;;;;;;5091993;28;20059;-79
2022/04/26 09:23:46;;;;;;;4.72;2.10;;;22.90;99.90;;;;;;5093318;28;20036;-80
2022/04/26 09:26:16;;;;;;;2.85;1.88;;;21.70;99.90;;;;;;5088973;28;20047;-82
2022/04/26 09:28:45;;;;;;;3.92;2.08;;;22.90;99.90;;;;;;5077795;28;20108;-85
2022/04/26 09:31:23;;;;;;;3.80;1.92;;;23.20;99.90;;;;;;5055470;28;20389;-82
2022/04/26 09:33:56;;;;;;;5.68;2.20;;;22.40;99.90;;;;;;5070605;28;20021;-83
2022/04/26 09:36:24;;;;;;;4.43;1.73;;;24.30;99.90;;;;;;5076126;28;20444;-82
2022/04/26 09:39:07;;;;;;;3.53;2.55;;;19.10;99.90;;;;;;5060663;28;20025;-82
2022/04/26 09:41:33;;;;;;;2.03;1.85;;;22.50;99.90;;;;;;5056529;28;20029;-82
2022/04/26 09:44:09;;;;;;;6.13;2.72;;;23.90;99.90;;;;;;5071356;28;20040;-83
2022/04/26 09:46:43;;;;;;;2.63;1.95;;;24.00;99.90;;;;;;5075470;28;20024;-83
2022/04/26 09:49:10;;;;;;;3.53;1.98;;;22.70;99.90;;;;;;5073700;28;20027;-80
2022/04/26 09:51:36;;;;;;;5.35;2.13;;;19.30;99.90;;;;;;5066563;28;20074;-83
2022/04/26 09:54:02;;;;;;;5.53;3.15;;;21.50;99.90;;;;;;5079484;28;20111;-83
2022/04/26 09:56:31;;;;;;;2.30;1.98;;;23.70;99.90;;;;;;5078975;28;20028;-83
2022/04/26 09:58:58;;;;;;;3.83;1.60;;;24.40;99.90;;;;;;5068303;28;20158;-83
2022/04/26 10:01:40;;;;;;;3.00;2.03;;;23.40;99.90;;;;;;5073218;28;20119;-83
2022/04/26 10:04:08;;;;;;;3.67;2.55;;;21.70;99.90;;;;;;5078013;28;20020;-83
2022/04/26 10:06:34;;;;;;;3.10;2.38;;;23.50;99.90;;;;;;5075207;28;20026;-83
2022/04/26 10:09:02;;;;;;;3.33;2.03;;;23.20;99.90;;;;;;5075865;28;20020;-83
2022/04/26 10:11:28;;;;;;;2.28;1.88;;;24.60;99.90;;;;;;5070486;28;20671;-83
2022/04/26 10:13:54;;;;;;;4.82;2.28;;;24.70;99.90;;;;;;5071076;28;20114;-83
2022/04/26 10:16:23;;;;;;;2.60;1.65;;;20.50;99.90;;;;;;5065480;28;20111;-83
2022/04/26 10:18:49;;;;;;;3.50;1.35;;;19.80;99.90;;;;;;5069836;28;20032;-83
2022/04/26 10:21:21;;;;;;;2.90;2.20;;;22.30;99.90;;;;;;5072898;28;20031;-82
2022/04/26 10:24:03;;;;;;;3.38;2.00;;;23.40;99.90;;;;;;5060829;28;20025;-84
2022/04/26 10:26:30;;;;;;;3.40;1.85;;;22.40;99.90;;;;;;5073847;28;20016;-83
2022/04/26 10:29:12;;;;;;;4.20;2.10;;;22.40;99.90;;;;;;5080582;28;20021;-84
2022/04/26 10:31:43;;;;;;;2.72;1.80;;;24.00;99.90;;;;;;5068648;28;20013;-85
2022/04/26 10:34:20;;;;;;;4.93;2.60;;;21.30;99.90;;;;;;5071399;28;20028;-84
2022/04/26 10:36:50;;;;;;;4.78;2.40;;;24.50;99.90;;;;;;5063355;28;20041;-77
2022/04/26 10:39:32;;;;;;;2.95;1.50;;;25.40;99.90;;;;;;5074909;28;20467;-85
2022/04/26 10:42:03;;;;;;;2.80;2.08;;;22.50;99.90;;;;;;5078200;28;20033;-80
2022/04/26 10:44:38;;;;;;;1.73;1.60;;;24.40;99.90;;;;;;5084387;28;20035;-82
2022/04/26 10:47:03;;;;;;;2.00;1.52;;;24.00;99.90;;;;;;5075096;28;20021;-82
2022/04/26 10:49:32;;;;;;;2.53;2.15;;;23.70;99.90;;;;;;5076198;28;20077;-82
2022/04/26 10:52:26;;;;;;;2.63;1.40;;;24.20;99.90;;;;;;5079558;28;20023;-83
2022/04/26 10:54:55;;;;;;;4.32;2.72;;;22.00;99.90;;;;;;5073380;28;20043;-83
2022/04/26 10:57:33;;;;;;;2.70;1.52;;;22.20;99.90;;;;;;5073980;28;20074;-83
2022/04/26 11:00:01;;;;;;;3.88;1.73;;;16.90;99.90;;;;;;5073838;28;20507;-83
2022/04/26 11:02:29;;;;;;;4.32;1.50;;;17.60;99.90;;;;;;5073521;28;20047;-83
2022/04/26 11:04:57;;;;;;;3.63;1.70;;;16.70;99.90;;;;;;5072187;28;20097;-84
2022/04/26 11:07:25;;;;;;;1.95;1.60;;;16.00;99.90;;;;;;5073355;28;20104;-84
2022/04/26 11:09:55;;;;;;;3.70;1.80;;;15.90;99.90;;;;;;5073848;28;20095;-83
2022/04/26 11:12:25;;;;;;;7.78;2.10;;;15.90;99.90;;;;;;5075090;28;20095;-83
2022/04/26 11:14:53;;;;;;;4.95;2.03;;;16.00;99.90;;;;;;5063749;28;20049;-82
2022/04/26 11:17:20;;;;;;;1.70;1.40;;;16.80;99.90;;;;;;5069574;28;20043;-83
2022/04/26 11:19:51;;;;;;;2.45;1.13;;;16.30;99.90;;;;;;5074168;28;20021;-83
2022/04/26 11:22:18;;;;;;;3.15;1.83;;;15.40;99.90;;;;;;5073659;28;20071;-82
2022/04/26 11:30:30;;;;;;;3.15;1.85;;;14.90;99.90;;;;;;5073910;28;20610;-82
2022/04/26 11:33:01;;;;;;;1.80;1.55;;;15.00;99.90;;;;;;5073555;28;20115;-82
2022/04/26 11:35:27;;;;;;;3.75;1.42;;;15.10;99.90;;;;;;5073130;28;20028;-82
2022/04/26 11:37:55;;;;;;;3.15;2.17;;;15.20;99.90;;;;;;5073161;28;20025;-82
2022/04/26 11:40:22;;;;;;;2.33;1.92;;;14.90;99.90;;;;;;5073293;28;20490;-82
2022/04/26 11:42:48;;;;;;;4.03;2.03;;;15.00;99.90;;;;;;5073100;28;20032;-81
2022/04/26 11:45:13;;;;;;;3.25;1.63;;;15.20;99.90;;;;;;5073393;28;20187;-82
2022/04/26 11:47:50;;;;;;;1.55;1.38;;;15.40;99.90;;;;;;5073583;28;20020;-83
2022/04/26 11:50:27;;;;;;;6.75;1.63;;;15.40;99.90;;;;;;5073543;28;20021;-84
2022/04/26 11:56:18;;;;;;;1.38;1.27;;;15.20;99.90;;;;;;5068440;28;20391;-83
2022/04/26 11:58:46;;;;;;;2.78;1.50;;;15.30;99.90;;;;;;5063347;28;20032;-84
2022/04/26 12:01:15;;;;;;;2.47;2.05;;;15.10;99.90;;;;;;5052855;28;20147;-84
2022/04/26 12:03:51;;;;;;;2.40;1.38;;;15.30;99.90;;;;;;5069961;28;20036;-84
2022/04/26 12:06:26;;;;;;;4.10;2.40;;;16.30;99.90;;;;;;5053983;28;20052;-84
2022/04/26 12:08:55;;;;;;;1.73;1.63;;;15.80;99.90;;;;;;5071215;28;20099;-83
2022/04/26 12:11:29;;;;;;;3.78;2.20;;;15.70;99.90;;;;;;5076438;28;20095;-85
2022/04/26 12:14:06;;;;;;;4.13;2.10;;;15.50;99.90;;;;;;5075473;28;20044;-84
2022/04/26 12:16:35;;;;;;;3.95;2.08;;;15.70;99.90;;;;;;5073308;28;20028;-84
2022/04/26 12:19:02;;;;;;;4.07;1.90;;;14.90;99.90;;;;;;5072603;28;20063;-84
2022/04/26 12:21:28;;;;;;;2.45;2.20;;;14.70;99.90;;;;;;5065539;28;20062;-84
2022/04/26 12:24:12;;;;;;;3.33;1.70;;;15.00;99.90;;;;;;5057964;28;20032;-83
2022/04/26 12:26:57;;;;;;;2.78;1.70;;;15.50;99.90;;;;;;5062060;28;20017;-84
2022/04/26 12:29:44;;;;;;;5.63;2.25;;;15.20;99.90;;;;;;5069120;28;20021;-84
2022/04/26 12:32:13;;;;;;;2.92;1.55;;;15.30;99.90;;;;;;5056092;28;20535;-84
2022/04/26 12:34:50;;;;;;;3.17;1.83;;;15.10;99.90;;;;;;5038296;28;20037;-84
2022/04/26 12:37:23;;;;;;;3.42;3.05;;;15.70;99.90;;;;;;5056178;28;20021;-83
2022/04/26 12:39:52;;;;;;;5.47;2.15;;;15.30;99.90;;;;;;5072241;28;20103;-83
2022/04/26 12:42:27;;;;;;;3.97;2.47;;;15.30;99.90;;;;;;5063802;28;20029;-85
2022/04/26 12:45:01;;;;;;;2.63;1.95;;;14.70;99.90;;;;;;5055304;28;20075;-83
2022/04/26 12:50:33;;;;;;;5.18;2.25;;;14.90;99.90;;;;;;5064184;28;20048;-83
2022/04/26 12:53:00;;;;;;;6.07;2.72;;;14.70;99.90;;;;;;5055807;28;20033;-83
2022/04/26 12:55:43;;;;;;;3.63;2.28;;;14.30;99.90;;;;;;5065249;28;20024;-83
2022/04/26 12:58:11;;;;;;;4.05;2.08;;;14.40;99.90;;;;;;5072295;28;20028;-83
2022/04/26 13:00:41;;;;;;;4.50;3.15;;;14.50;99.90;;;;;;5083806;28;20033;-84
2022/04/26 13:03:08;;;;;;;4.70;2.60;;;14.80;99.90;;;;;;5061997;28;20037;-83
2022/04/26 13:05:37;;;;;;;2.28;1.60;;;15.00;99.90;;;;;;5055863;28;20056;-83
2022/04/26 13:08:02;;;;;;;4.07;2.30;;;14.60;99.90;;;;;;5063079;28;20032;-83
2022/04/26 13:10:28;;;;;;;4.30;3.03;;;14.80;99.90;;;;;;5055187;28;20035;-83
2022/04/26 13:12:53;;;;;;;3.05;2.47;;;14.90;99.90;;;;;;5055182;28;20035;-83
2022/04/26 13:15:23;;;;;;;5.22;2.60;;;14.60;99.90;;;;;;5061723;28;20128;-84
2022/04/26 13:17:49;;;;;;;4.23;2.20;;;14.90;99.90;;;;;;5055329;28;20104;-83
2022/04/26 13:20:14;;;;;;;4.10;3.20;;;14.20;99.90;;;;;;5055425;28;20048;-84
2022/04/26 13:22:40;;;;;;;3.90;2.90;;;14.40;99.90;;;;;;5077062;28;20488;-83
2022/04/26 13:25:08;;;;;;;3.70;2.95;;;15.10;99.90;;;;;;5064773;28;20021;-84
2022/04/26 13:27:35;;;;;;;4.45;2.67;;;15.10;99.90;;;;;;5057644;28;20017;-83
2022/04/26 13:30:02;;;;;;;4.13;2.20;;;14.40;99.90;;;;;;5066159;28;20027;-83
2022/04/26 13:32:29;;;;;;;5.13;3.60;;;14.10;99.90;;;;;;5071812;28;20041;-83
2022/04/26 13:34:56;;;;;;;4.47;3.00;;;14.30;99.90;;;;;;5066144;28;20020;-83
2022/04/26 13:37:21;;;;;;;6.85;2.83;;;14.40;99.90;;;;;;5066001;28;20056;-83
2022/04/26 13:39:49;;;;;;;4.68;3.05;;;14.20;99.90;;;;;;5074555;28;20045;-83
2022/04/26 13:42:15;;;;;;;2.13;1.60;;;14.10;99.90;;;;;;5066332;28;20020;-84
2022/04/26 13:44:41;;;;;;;3.58;2.70;;;14.10;99.90;;;;;;5074274;28;20013;-84
2022/04/26 13:47:08;;;;;;;2.67;2.40;;;14.30;99.90;;;;;;5075213;28;20078;-83
2022/04/26 13:49:34;;;;;;;3.00;1.80;;;14.30;99.90;;;;;;5055137;28;20033;-83
2022/04/26 13:52:01;;;;;;;3.63;2.25;;;14.40;99.90;;;;;;5054684;28;20492;-83
2022/04/26 13:54:27;;;;;;;3.50;2.30;;;14.70;99.90;;;;;;5056669;28;20033;-83
2022/04/26 13:56:54;;;;;;;3.55;1.90;;;15.10;99.90;;;;;;5069036;28;20074;-83
2022/04/26 13:59:20;;;;;;;7.47;2.85;;;14.90;99.90;;;;;;5054060;28;20075;-83
2022/04/26 14:01:46;;;;;;;4.97;3.00;;;15.00;99.90;;;;;;5060938;28;20063;-83
2022/04/26 14:04:12;;;;;;;3.53;2.92;;;14.80;99.90;;;;;;5061772;28;20061;-83
2022/04/26 14:06:37;;;;;;;3.97;2.90;;;15.10;99.90;;;;;;5065527;28;20024;-83
2022/04/26 14:09:03;;;;;;;3.53;1.95;;;15.00;99.90;;;;;;5066541;28;20025;-84
2022/04/26 14:11:29;;;;;;;2.95;1.95;;;15.30;99.90;;;;;;5059588;28;20144;-83
2022/04/26 14:22:07;;;;;;;5.63;2.47;;;13.70;99.90;;;;;;5073522;28;20032;-83
2022/04/26 14:24:33;;;;;;;5.55;3.20;;;13.60;99.90;;;;;;5072405;28;20102;-83
2022/04/26 14:26:59;;;;;;;3.08;2.03;;;13.80;99.90;;;;;;5035492;28;20352;-83
2022/04/26 14:29:25;;;;;;;1.52;1.38;;;13.70;99.90;;;;;;5070808;28;20032;-83
2022/04/26 14:31:51;;;;;;;8.20;2.28;;;13.60;99.90;;;;;;5073070;28;20021;-83
2022/04/26 14:34:17;;;;;;;5.15;2.28;;;13.30;99.90;;;;;;5072643;28;20028;-83
2022/04/26 14:36:42;;;;;;;2.72;2.30;;;13.80;99.90;;;;;;5073362;28;20051;-83
2022/04/26 14:39:08;;;;;;;3.45;2.28;;;13.90;99.90;;;;;;5073443;28;20013;-83
2022/04/26 14:41:34;;;;;;;4.95;2.63;;;13.90;99.90;;;;;;5073160;28;20391;-83
2022/04/26 14:44:00;;;;;;;3.08;1.75;;;13.80;99.90;;;;;;5064175;28;20035;-84
2022/04/26 14:46:28;;;;;;;4.95;2.50;;;13.50;99.90;;;;;;5073247;28;20059;-84
2022/04/26 14:48:56;;;;;;;4.78;1.77;;;13.20;99.90;;;;;;5064020;28;20424;-83
2022/04/26 14:51:23;;;;;;;4.10;2.38;;;13.70;99.90;;;;;;5073086;28;20028;-83
2022/04/26 14:53:49;;;;;;;4.68;2.70;;;13.60;99.90;;;;;;5072802;28;20547;-82
2022/04/26 14:56:15;;;;;;;2.75;1.88;;;13.60;99.90;;;;;;5069421;28;20104;-83
2022/04/26 14:58:41;;;;;;;5.65;2.97;;;13.50;99.90;;;;;;5067394;28;20561;-83
2022/04/26 15:01:07;;;;;;;5.95;2.47;;;13.60;99.90;;;;;;5055588;28;20464;-82
2022/04/26 15:03:33;;;;;;;2.15;1.50;;;13.50;99.90;;;;;;5054066;28;20029;-86
2022/04/26 15:05:59;;;;;;;3.92;2.13;;;13.70;99.90;;;;;;5054117;28;20048;-82
2022/04/26 15:11:09;;;;;;;5.53;2.40;;;13.30;99.90;;;;;;5077459;28;20336;-82
2022/04/26 15:19:06;;;;;;;1.80;1.33;;;14.30;99.90;;;;;;5058927;28;20031;-82
2022/04/26 15:21:32;;;;;;;2.88;2.05;;;14.10;99.90;;;;;;5059177;28;20506;-82
2022/04/26 15:23:59;;;;;;;2.50;1.77;;;13.70;99.90;;;;;;5053491;28;20101;-83
2022/04/26 15:26:25;;;;;;;3.53;1.80;;;13.20;99.90;;;;;;5056616;28;20081;-80
2022/04/26 15:28:51;;;;;;;3.00;2.22;;;13.10;99.90;;;;;;5082327;28;20028;-80
2022/04/26 15:31:18;;;;;;;2.78;2.30;;;13.30;99.90;;;;;;5092850;28;20033;-80
2022/04/26 15:33:48;;;;;;;3.08;2.15;;;13.60;99.90;;;;;;5090172;28;20020;-80
2022/04/26 15:36:16;;;;;;;2.83;1.48;;;13.30;99.90;;;;;;5068771;28;20048;-80
2022/04/26 15:38:43;;;;;;;4.20;2.13;;;12.90;99.90;;;;;;5077634;28;20019;-79
2022/04/26 15:41:09;;;;;;;2.88;1.45;;;13.20;99.90;;;;;;5072646;28;20024;-80
2022/04/26 15:43:36;;;;;;;3.60;2.13;;;13.30;99.90;;;;;;5079094;28;20196;-80
2022/04/26 15:46:08;;;;;;;3.08;1.92;;;13.30;99.90;;;;;;5075321;28;20028;-79
2022/04/26 15:48:37;;;;;;;2.75;2.13;;;13.50;99.90;;;;;;5079035;28;20084;-80
2022/04/26 15:51:04;;;;;;;1.30;1.05;;;13.50;99.90;;;;;;5089724;28;20017;-80
2022/04/26 15:53:30;;;;;;;5.80;1.75;;;13.20;99.90;;;;;;5092908;28;20020;-80
2022/04/26 15:55:55;;;;;;;3.08;1.85;;;12.90;99.90;;;;;;5088262;28;20035;-80
2022/04/26 15:58:21;;;;;;;4.85;2.10;;;12.70;99.90;;;;;;5086458;28;20688;-79
2022/04/26 16:00:47;;;;;;;2.97;1.65;;;12.70;99.90;;;;;;5084824;28;20021;-79
2022/04/26 16:03:13;;;;;;;5.07;1.67;;;12.70;99.90;;;;;;5089301;28;20286;-79
2022/04/26 16:05:40;;;;;;;4.45;2.53;;;12.50;99.90;;;;;;5084460;28;20020;-80
2022/04/26 16:08:07;;;;;;;4.72;2.33;;;12.40;99.90;;;;;;5091726;28;20017;-80
2022/04/26 16:21:30;;;;;;;6.38;2.08;;;12.90;99.90;;;;;;5093806;28;20031;-80
2022/04/26 16:23:57;;;;;;;5.68;2.38;;;13.00;99.90;;;;;;5079778;28;20017;-80
2022/04/26 16:26:23;;;;;;;5.78;1.67;;;13.30;99.90;;;;;;5093915;28;20078;-80
2022/04/26 16:28:51;;;;;;;3.00;1.90;;;13.40;99.90;;;;;;5083357;28;20028;-79
2022/04/26 16:31:19;;;;;;;4.38;2.15;;;13.50;99.90;;;;;;5087715;28;20001;-79
2022/04/26 16:33:44;;;;;;;4.22;2.45;;;13.60;99.90;;;;;;5086911;28;20027;-80
2022/04/26 16:36:11;;;;;;;3.22;1.23;;;13.80;99.90;;;;;;5092510;28;20037;-80
2022/04/26 16:38:37;;;;;;;3.03;1.40;;;13.10;99.90;;;;;;5093423;28;20578;-80
2022/04/26 16:41:06;;;;;;;2.53;1.58;;;12.80;99.90;;;;;;5092603;28;20010;-80
2022/04/26 16:43:33;;;;;;;1.50;1.20;;;12.50;99.90;;;;;;5088691;28;20025;-80
2022/04/26 16:46:01;;;;;;;4.15;2.13;;;12.30;99.90;;;;;;5082585;28;20024;-80
2022/04/26 16:48:27;;;;;;;3.10;2.17;;;12.20;99.90;;;;;;5084429;28;20016;-80
2022/04/26 16:50:53;;;;;;;2.05;1.70;;;12.20;99.90;;;;;;5080760;28;20013;-80
2022/04/26 16:53:18;;;;;;;3.28;2.05;;;11.90;99.90;;;;;;5076965;28;20096;-79
2022/04/26 16:55:44;;;;;;;4.15;2.30;;;11.70;99.90;;;;;;5071016;28;20062;-79
2022/04/26 16:58:10;;;;;;;4.72;2.05;;;11.60;99.90;;;;;;5075409;28;20029;-79
2022/04/26 17:00:35;;;;;;;4.28;1.90;;;11.40;99.90;;;;;;5074484;28;20073;-80
2022/04/26 17:03:01;;;;;;;2.65;1.90;;;11.30;99.90;;;;;;5074520;28;20028;-80
2022/04/26 17:05:29;;;;;;;1.92;1.50;;;11.20;99.90;;;;;;5071930;28;20021;-78
2022/04/26 17:07:56;;;;;;;3.08;1.80;;;11.10;99.90;;;;;;5069675;28;20032;-81
2022/04/26 17:10:23;;;;;;;4.28;2.03;;;11.00;99.90;;;;;;5080422;28;20066;-80
2022/04/26 17:12:49;;;;;;;3.97;1.67;;;10.90;99.90;;;;;;5078171;28;20043;-80
2022/04/26 17:15:16;;;;;;;2.70;1.65;;;10.90;99.90;;;;;;5086810;28;20154;-81
2022/04/26 17:17:42;;;;;;;2.92;1.50;;;11.00;99.90;;;;;;5084569;28;20093;-83
2022/04/26 17:20:09;;;;;;;2.97;1.17;;;11.10;99.90;;;;;;5063062;28;20016;-82